sensor_id;sensor_type;location;lat;lon;timestamp;pressure;altitude;pressure_sealevel;temperature;humidity
46392;BME280;32098;49.448;7.904;2022-12-07T00:01:30;98312.66;;;1.84;84.09
46392;BME280;32098;49.448;7.904;2022-12-07T00:03:59;98306.97;;;1.72;83.94
46392;BME280;32098;49.448;7.904;2022-12-07T00:06:33;98306.00;;;1.73;84.16
46392;BME280;32098;49.448;7.904;2022-12-07T00:09:01;98309.09;;;1.77;83.51
46392;BME280;32098;49.448;7.904;2022-12-07T00:11:28;98308.16;;;1.62;84.44
46392;BME280;32098;49.448;7.904;2022-12-07T00:13:56;98302.97;;;1.45;85.39
46392;BME280;32098;49.448;7.904;2022-12-07T00:16:26;98298.03;;;1.42;85.84
46392;BME280;32098;49.448;7.904;2022-12-07T00:18:53;98302.47;;;1.42;86.17
46392;BME280;32098;49.448;7.904;2022-12-07T00:21:22;98293.88;;;1.56;85.96
46392;BME280;32098;49.448;7.904;2022-12-07T00:23:49;98292.84;;;1.65;85.32
46392;BME280;32098;49.448;7.904;2022-12-07T00:26:22;98291.72;;;1.60;84.92
46392;BME280;32098;49.448;7.904;2022-12-07T00:28:52;98284.81;;;1.59;84.90
46392;BME280;32098;49.448;7.904;2022-12-07T00:31:20;98288.41;;;1.66;85.45
46392;BME280;32098;49.448;7.904;2022-12-07T00:33:48;98278.06;;;1.56;85.31
46392;BME280;32098;49.448;7.904;2022-12-07T00:36:17;98291.69;;;1.68;85.05
46392;BME280;32098;49.448;7.904;2022-12-07T00:38:51;98289.03;;;1.76;84.60
46392;BME280;32098;49.448;7.904;2022-12-07T00:41:20;98292.75;;;1.81;84.42
46392;BME280;32098;49.448;7.904;2022-12-07T00:43:48;98288.03;;;1.77;83.86
46392;BME280;32098;49.448;7.904;2022-12-07T00:46:16;98290.53;;;1.70;83.92
46392;BME280;32098;49.448;7.904;2022-12-07T00:48:43;98280.41;;;1.51;83.80
46392;BME280;32098;49.448;7.904;2022-12-07T00:51:11;98289.13;;;1.51;84.50
46392;BME280;32098;49.448;7.904;2022-12-07T00:53:38;98290.59;;;1.54;84.25
46392;BME280;32098;49.448;7.904;2022-12-07T00:56:10;98292.69;;;1.59;84.52
46392;BME280;32098;49.448;7.904;2022-12-07T00:58:37;98286.13;;;1.63;84.48
46392;BME280;32098;49.448;7.904;2022-12-07T01:01:05;98274.59;;;1.64;84.42
46392;BME280;32098;49.448;7.904;2022-12-07T01:03:32;98275.25;;;1.66;84.23
46392;BME280;32098;49.448;7.904;2022-12-07T01:05:59;98285.78;;;1.66;83.71
46392;BME280;32098;49.448;7.904;2022-12-07T01:08:27;98290.88;;;1.67;83.36
46392;BME280;32098;49.448;7.904;2022-12-07T01:11:05;98273.38;;;1.74;82.97
46392;BME280;32098;49.448;7.904;2022-12-07T01:13:33;98279.19;;;1.70;83.36
46392;BME280;32098;49.448;7.904;2022-12-07T01:16:02;98270.16;;;1.64;83.49
46392;BME280;32098;49.448;7.904;2022-12-07T01:18:31;98268.97;;;1.67;83.37
46392;BME280;32098;49.448;7.904;2022-12-07T01:21:21;98171.75;;;1.04;83.92
46392;BME280;32098;49.448;7.904;2022-12-07T01:23:48;98267.69;;;1.63;84.49
46392;BME280;32098;49.448;7.904;2022-12-07T01:26:19;98264.47;;;1.44;84.74
46392;BME280;32098;49.448;7.904;2022-12-07T01:28:46;98282.53;;;1.56;84.63
46392;BME280;32098;49.448;7.904;2022-12-07T01:31:15;98278.97;;;1.40;84.46
46392;BME280;32098;49.448;7.904;2022-12-07T01:33:44;98279.28;;;1.45;84.61
46392;BME280;32098;49.448;7.904;2022-12-07T01:36:20;98277.00;;;1.42;84.68
46392;BME280;32098;49.448;7.904;2022-12-07T01:38:50;98278.94;;;1.48;84.26
46392;BME280;32098;49.448;7.904;2022-12-07T01:41:19;98279.22;;;1.53;84.52
46392;BME280;32098;49.448;7.904;2022-12-07T01:44:10;98282.69;;;1.54;83.85
46392;BME280;32098;49.448;7.904;2022-12-07T01:46:37;98268.47;;;1.40;83.67
46392;BME280;32098;49.448;7.904;2022-12-07T01:49:06;98290.59;;;1.54;83.29
46392;BME280;32098;49.448;7.904;2022-12-07T01:51:35;98285.81;;;1.58;83.01
46392;BME280;32098;49.448;7.904;2022-12-07T01:54:04;98288.75;;;1.63;82.87
46392;BME280;32098;49.448;7.904;2022-12-07T01:56:31;98285.13;;;1.64;82.93
46392;BME280;32098;49.448;7.904;2022-12-07T01:58:59;98254.94;;;1.43;83.35
46392;BME280;32098;49.448;7.904;2022-12-07T02:01:28;98285.47;;;1.61;83.76
46392;BME280;32098;49.448;7.904;2022-12-07T02:03:55;98292.41;;;1.53;83.58
46392;BME280;32098;49.448;7.904;2022-12-07T02:06:24;98287.97;;;1.46;83.81
46392;BME280;32098;49.448;7.904;2022-12-07T02:08:52;98262.78;;;1.21;83.87
46392;BME280;32098;49.448;7.904;2022-12-07T02:11:19;98279.31;;;1.37;83.93
46392;BME280;32098;49.448;7.904;2022-12-07T02:13:46;98278.47;;;1.45;83.68
46392;BME280;32098;49.448;7.904;2022-12-07T02:16:34;98273.72;;;1.40;84.18
46392;BME280;32098;49.448;7.904;2022-12-07T02:19:37;98266.13;;;1.45;83.99
46392;BME280;32098;49.448;7.904;2022-12-07T02:28:19;98262.66;;;1.53;83.14
46392;BME280;32098;49.448;7.904;2022-12-07T02:30:49;98263.09;;;1.57;82.93
46392;BME280;32098;49.448;7.904;2022-12-07T02:33:29;98253.91;;;1.61;82.47
46392;BME280;32098;49.448;7.904;2022-12-07T02:36:27;98259.84;;;1.54;81.96
46392;BME280;32098;49.448;7.904;2022-12-07T02:39:13;98256.56;;;1.52;81.83
46392;BME280;32098;49.448;7.904;2022-12-07T02:41:52;98247.66;;;1.53;81.58
46392;BME280;32098;49.448;7.904;2022-12-07T02:44:23;98249.31;;;1.54;81.61
46392;BME280;32098;49.448;7.904;2022-12-07T02:46:58;98256.22;;;1.56;81.38
46392;BME280;32098;49.448;7.904;2022-12-07T02:49:27;98255.41;;;1.55;80.93
46392;BME280;32098;49.448;7.904;2022-12-07T02:51:55;98249.63;;;1.60;80.79
46392;BME280;32098;49.448;7.904;2022-12-07T02:54:22;98248.16;;;1.57;80.58
46392;BME280;32098;49.448;7.904;2022-12-07T02:56:53;98248.78;;;1.59;80.50
46392;BME280;32098;49.448;7.904;2022-12-07T02:59:51;98250.44;;;1.60;80.32
46392;BME280;32098;49.448;7.904;2022-12-07T03:07:54;98241.72;;;1.60;79.84
46392;BME280;32098;49.448;7.904;2022-12-07T03:13:25;98241.91;;;1.58;79.50
46392;BME280;32098;49.448;7.904;2022-12-07T03:16:05;98228.75;;;1.58;80.03
46392;BME280;32098;49.448;7.904;2022-12-07T03:18:37;98226.91;;;1.59;80.03
46392;BME280;32098;49.448;7.904;2022-12-07T03:21:14;98229.53;;;1.59;80.08
46392;BME280;32098;49.448;7.904;2022-12-07T03:23:44;98222.66;;;1.58;79.95
46392;BME280;32098;49.448;7.904;2022-12-07T03:26:14;98220.19;;;1.56;79.74
46392;BME280;32098;49.448;7.904;2022-12-07T03:28:47;98216.56;;;1.57;79.44
46392;BME280;32098;49.448;7.904;2022-12-07T03:31:21;98215.63;;;1.50;79.63
46392;BME280;32098;49.448;7.904;2022-12-07T03:34:11;98227.97;;;1.41;79.54
46392;BME280;32098;49.448;7.904;2022-12-07T03:36:58;98222.59;;;1.35;79.71
46392;BME280;32098;49.448;7.904;2022-12-07T03:42:02;98211.84;;;1.44;80.30
46392;BME280;32098;49.448;7.904;2022-12-07T03:44:31;98215.66;;;1.42;80.34
46392;BME280;32098;49.448;7.904;2022-12-07T03:47:03;98219.25;;;1.41;80.41
46392;BME280;32098;49.448;7.904;2022-12-07T03:49:38;98224.50;;;1.49;80.08
46392;BME280;32098;49.448;7.904;2022-12-07T03:52:21;98220.06;;;1.49;79.77
46392;BME280;32098;49.448;7.904;2022-12-07T03:55:02;98226.78;;;1.52;79.87
46392;BME280;32098;49.448;7.904;2022-12-07T03:57:33;98227.94;;;1.49;80.55
46392;BME280;32098;49.448;7.904;2022-12-07T03:59:59;98227.09;;;1.57;80.31
46392;BME280;32098;49.448;7.904;2022-12-07T04:02:37;98225.81;;;1.53;80.57
46392;BME280;32098;49.448;7.904;2022-12-07T04:05:04;98221.19;;;1.55;80.03
46392;BME280;32098;49.448;7.904;2022-12-07T04:07:31;98224.97;;;1.52;79.20
46392;BME280;32098;49.448;7.904;2022-12-07T04:09:57;98231.53;;;1.57;79.45
46392;BME280;32098;49.448;7.904;2022-12-07T04:12:24;98228.06;;;1.56;79.59
46392;BME280;32098;49.448;7.904;2022-12-07T04:14:50;98227.56;;;1.61;79.48
46392;BME280;32098;49.448;7.904;2022-12-07T04:17:17;98213.75;;;1.59;79.28
46392;BME280;32098;49.448;7.904;2022-12-07T04:19:44;98222.78;;;1.64;79.32
46392;BME280;32098;49.448;7.904;2022-12-07T04:22:10;98223.41;;;1.66;79.33
46392;BME280;32098;49.448;7.904;2022-12-07T04:24:36;98230.00;;;1.70;79.14
46392;BME280;32098;49.448;7.904;2022-12-07T04:27:03;98233.16;;;1.66;79.53
46392;BME280;32098;49.448;7.904;2022-12-07T04:29:29;98236.22;;;1.69;79.84
46392;BME280;32098;49.448;7.904;2022-12-07T04:31:56;98230.44;;;1.74;80.07
46392;BME280;32098;49.448;7.904;2022-12-07T04:34:23;98222.78;;;1.64;80.33
46392;BME280;32098;49.448;7.904;2022-12-07T04:36:49;98223.25;;;1.68;80.75
46392;BME280;32098;49.448;7.904;2022-12-07T04:39:27;98220.78;;;1.66;80.40
46392;BME280;32098;49.448;7.904;2022-12-07T04:41:55;98222.63;;;1.66;80.36
46392;BME280;32098;49.448;7.904;2022-12-07T04:44:22;98181.25;;;1.43;80.08
46392;BME280;32098;49.448;7.904;2022-12-07T04:46:49;98214.06;;;1.64;80.54
46392;BME280;32098;49.448;7.904;2022-12-07T04:49:17;98217.06;;;1.61;80.96
46392;BME280;32098;49.448;7.904;2022-12-07T04:51:44;98215.06;;;1.63;81.22
46392;BME280;32098;49.448;7.904;2022-12-07T04:54:12;98220.47;;;1.61;81.26
46392;BME280;32098;49.448;7.904;2022-12-07T04:56:39;98215.41;;;1.60;81.32
46392;BME280;32098;49.448;7.904;2022-12-07T04:59:05;98222.78;;;1.64;81.12
46392;BME280;32098;49.448;7.904;2022-12-07T05:01:33;98220.66;;;1.60;81.95
46392;BME280;32098;49.448;7.904;2022-12-07T05:03:59;98215.59;;;1.58;82.16
46392;BME280;32098;49.448;7.904;2022-12-07T05:06:26;98218.66;;;1.62;82.02
46392;BME280;32098;49.448;7.904;2022-12-07T05:08:53;98219.00;;;1.59;81.39
46392;BME280;32098;49.448;7.904;2022-12-07T05:11:19;98225.75;;;1.61;81.55
46392;BME280;32098;49.448;7.904;2022-12-07T05:14:19;98221.66;;;1.59;81.69
46392;BME280;32098;49.448;7.904;2022-12-07T05:16:48;98220.31;;;1.63;81.42
46392;BME280;32098;49.448;7.904;2022-12-07T05:19:16;98227.22;;;1.64;82.08
46392;BME280;32098;49.448;7.904;2022-12-07T05:21:43;98218.66;;;1.62;82.29
46392;BME280;32098;49.448;7.904;2022-12-07T05:24:11;98209.19;;;1.52;82.08
46392;BME280;32098;49.448;7.904;2022-12-07T05:26:38;98207.03;;;1.56;81.97
46392;BME280;32098;49.448;7.904;2022-12-07T05:29:05;98222.31;;;1.61;81.78
46392;BME280;32098;49.448;7.904;2022-12-07T05:31:32;98222.13;;;1.62;81.85
46392;BME280;32098;49.448;7.904;2022-12-07T05:33:59;98226.22;;;1.65;82.25
46392;BME280;32098;49.448;7.904;2022-12-07T05:36:25;98218.97;;;1.67;82.01
46392;BME280;32098;49.448;7.904;2022-12-07T05:38:55;98222.09;;;1.70;82.01
46392;BME280;32098;49.448;7.904;2022-12-07T05:41:21;98212.88;;;1.66;82.12
46392;BME280;32098;49.448;7.904;2022-12-07T05:44:06;98209.09;;;1.69;81.74
46392;BME280;32098;49.448;7.904;2022-12-07T05:46:33;98209.59;;;1.64;81.71
46392;BME280;32098;49.448;7.904;2022-12-07T05:49:00;98208.94;;;1.70;82.12
46392;BME280;32098;49.448;7.904;2022-12-07T05:51:27;98212.09;;;1.66;82.16
46392;BME280;32098;49.448;7.904;2022-12-07T05:53:53;98213.72;;;1.67;82.12
46392;BME280;32098;49.448;7.904;2022-12-07T05:56:20;98209.09;;;1.69;82.28
46392;BME280;32098;49.448;7.904;2022-12-07T05:58:46;98216.34;;;1.67;81.89
46392;BME280;32098;49.448;7.904;2022-12-07T06:01:32;98211.72;;;1.69;81.90
46392;BME280;32098;49.448;7.904;2022-12-07T06:03:58;98214.34;;;1.69;81.69
46392;BME280;32098;49.448;7.904;2022-12-07T06:06:24;98209.75;;;1.71;81.78
46392;BME280;32098;49.448;7.904;2022-12-07T06:08:51;98210.72;;;1.70;81.71
46392;BME280;32098;49.448;7.904;2022-12-07T06:11:18;98210.72;;;1.70;81.70
46392;BME280;32098;49.448;7.904;2022-12-07T06:14:03;98221.44;;;1.68;81.52
46392;BME280;32098;49.448;7.904;2022-12-07T06:16:29;98211.06;;;1.67;82.00
46392;BME280;32098;49.448;7.904;2022-12-07T06:18:56;98218.00;;;1.68;82.04
46392;BME280;32098;49.448;7.904;2022-12-07T06:21:22;98205.81;;;1.67;82.07
46392;BME280;32098;49.448;7.904;2022-12-07T06:23:49;98214.72;;;1.66;81.92
46392;BME280;32098;49.448;7.904;2022-12-07T06:26:15;98213.06;;;1.65;82.00
46392;BME280;32098;49.448;7.904;2022-12-07T06:28:42;98213.91;;;1.65;81.98
46392;BME280;32098;49.448;7.904;2022-12-07T06:31:09;98212.38;;;1.71;81.65
46392;BME280;32098;49.448;7.904;2022-12-07T06:33:39;98222.09;;;1.70;81.63
46392;BME280;32098;49.448;7.904;2022-12-07T06:36:06;98218.97;;;1.67;81.75
46392;BME280;32098;49.448;7.904;2022-12-07T06:38:33;98215.03;;;1.71;81.74
46392;BME280;32098;49.448;7.904;2022-12-07T06:40:59;98216.00;;;1.70;81.97
46392;BME280;32098;49.448;7.904;2022-12-07T06:43:26;98218.00;;;1.68;81.68
46392;BME280;32098;49.448;7.904;2022-12-07T06:45:53;98214.72;;;1.66;82.02
46392;BME280;32098;49.448;7.904;2022-12-07T06:48:20;98214.72;;;1.66;82.24
46392;BME280;32098;49.448;7.904;2022-12-07T06:50:47;98219.16;;;1.65;82.20
46392;BME280;32098;49.448;7.904;2022-12-07T06:53:20;98221.94;;;1.64;82.01
46392;BME280;32098;49.448;7.904;2022-12-07T06:55:46;98230.03;;;1.62;81.93
46392;BME280;32098;49.448;7.904;2022-12-07T06:58:12;98219.84;;;1.59;81.82
46392;BME280;32098;49.448;7.904;2022-12-07T07:00:39;98225.09;;;1.59;82.11
46392;BME280;32098;49.448;7.904;2022-12-07T07:03:05;98229.03;;;1.63;81.75
46392;BME280;32098;49.448;7.904;2022-12-07T07:05:32;98224.94;;;1.61;82.16
46392;BME280;32098;49.448;7.904;2022-12-07T07:07:58;98229.50;;;1.67;82.12
46392;BME280;32098;49.448;7.904;2022-12-07T07:10:45;98230.50;;;1.66;82.67
46392;BME280;32098;49.448;7.904;2022-12-07T07:13:11;98227.88;;;1.66;82.76
46392;BME280;32098;49.448;7.904;2022-12-07T07:15:38;98218.22;;;1.58;82.86
46392;BME280;32098;49.448;7.904;2022-12-07T07:18:05;98227.69;;;1.67;82.55
46392;BME280;32098;49.448;7.904;2022-12-07T07:20:33;98232.13;;;1.67;82.16
46392;BME280;32098;49.448;7.904;2022-12-07T07:23:00;98233.16;;;1.66;81.99
46392;BME280;32098;49.448;7.904;2022-12-07T07:25:27;98227.06;;;1.65;82.09
46392;BME280;32098;49.448;7.904;2022-12-07T07:27:53;98230.50;;;1.66;82.26
46392;BME280;32098;49.448;7.904;2022-12-07T07:30:20;98226.88;;;1.67;82.18
46392;BME280;32098;49.448;7.904;2022-12-07T07:32:47;98232.63;;;1.70;82.21
46392;BME280;32098;49.448;7.904;2022-12-07T07:35:13;98235.41;;;1.69;82.63
46392;BME280;32098;49.448;7.904;2022-12-07T07:37:40;98236.22;;;1.69;82.66
46392;BME280;32098;49.448;7.904;2022-12-07T07:40:08;98233.59;;;1.69;82.69
46392;BME280;32098;49.448;7.904;2022-12-07T07:42:35;98241.16;;;1.72;82.21
46392;BME280;32098;49.448;7.904;2022-12-07T07:45:02;98245.59;;;1.72;82.17
46392;BME280;32098;49.448;7.904;2022-12-07T07:47:29;98247.25;;;1.73;82.44
46392;BME280;32098;49.448;7.904;2022-12-07T07:49:55;98240.81;;;1.75;82.66
46392;BME280;32098;49.448;7.904;2022-12-07T07:52:23;98240.63;;;1.77;82.66
46392;BME280;32098;49.448;7.904;2022-12-07T07:54:50;98231.47;;;1.73;82.52
46392;BME280;32098;49.448;7.904;2022-12-07T07:57:17;98239.66;;;1.78;82.57
46392;BME280;32098;49.448;7.904;2022-12-07T07:59:43;98242.09;;;1.79;82.55
46392;BME280;32098;49.448;7.904;2022-12-07T08:02:20;98243.13;;;1.78;82.58
46392;BME280;32098;49.448;7.904;2022-12-07T08:04:46;98253.75;;;1.85;82.42
46392;BME280;32098;49.448;7.904;2022-12-07T08:07:14;98251.47;;;1.82;82.40
46392;BME280;32098;49.448;7.904;2022-12-07T08:09:41;98252.09;;;1.84;82.09
46392;BME280;32098;49.448;7.904;2022-12-07T08:12:08;98260.00;;;1.84;82.78
46392;BME280;32098;49.448;7.904;2022-12-07T08:14:34;98256.41;;;1.85;82.80
46392;BME280;32098;49.448;7.904;2022-12-07T08:17:01;98263.75;;;1.89;82.36
46392;BME280;32098;49.448;7.904;2022-12-07T08:19:27;98265.22;;;1.92;82.55
46392;BME280;32098;49.448;7.904;2022-12-07T08:21:55;98260.50;;;1.87;82.16
46392;BME280;32098;49.448;7.904;2022-12-07T08:24:22;98256.41;;;1.85;82.31
46392;BME280;32098;49.448;7.904;2022-12-07T08:26:49;98261.63;;;1.93;82.80
46392;BME280;32098;49.448;7.904;2022-12-07T08:29:16;98261.28;;;1.96;82.57
46392;BME280;32098;49.448;7.904;2022-12-07T08:31:43;98263.25;;;1.94;82.64
46392;BME280;32098;49.448;7.904;2022-12-07T08:34:10;98258.97;;;1.93;82.69
46392;BME280;32098;49.448;7.904;2022-12-07T08:36:37;98259.28;;;1.98;82.63
46392;BME280;32098;49.448;7.904;2022-12-07T08:39:04;98265.19;;;2.00;82.71
46392;BME280;32098;49.448;7.904;2022-12-07T08:41:50;98270.13;;;2.03;82.26
46392;BME280;32098;49.448;7.904;2022-12-07T08:44:17;98271.56;;;2.05;82.53
46392;BME280;32098;49.448;7.904;2022-12-07T08:46:46;98263.34;;;2.08;82.28
46392;BME280;32098;49.448;7.904;2022-12-07T08:49:20;98265.59;;;2.11;82.37
46392;BME280;32098;49.448;7.904;2022-12-07T08:51:48;98252.19;;;2.21;82.84
46392;BME280;32098;49.448;7.904;2022-12-07T08:54:17;98262.31;;;2.32;82.27
46392;BME280;32098;49.448;7.904;2022-12-07T08:56:45;98258.34;;;2.36;81.94
46392;BME280;32098;49.448;7.904;2022-12-07T08:59:18;98259.44;;;2.42;81.64
46392;BME280;32098;49.448;7.904;2022-12-07T09:01:45;98255.81;;;2.43;82.02
46392;BME280;32098;49.448;7.904;2022-12-07T09:04:12;98255.09;;;2.49;81.39
46392;BME280;32098;49.448;7.904;2022-12-07T09:06:40;98247.31;;;2.55;81.16
46392;BME280;32098;49.448;7.904;2022-12-07T09:09:08;98247.03;;;2.50;80.75
46392;BME280;32098;49.448;7.904;2022-12-07T09:11:35;98254.69;;;2.60;80.93
46392;BME280;32098;49.448;7.904;2022-12-07T09:14:02;98261.78;;;2.59;80.76
46392;BME280;32098;49.448;7.904;2022-12-07T09:16:28;98258.97;;;2.61;80.93
46392;BME280;32098;49.448;7.904;2022-12-07T09:18:55;98254.88;;;2.58;80.48
46392;BME280;32098;49.448;7.904;2022-12-07T09:21:22;98256.84;;;2.56;80.54
46392;BME280;32098;49.448;7.904;2022-12-07T09:23:48;98257.69;;;2.57;80.50
46392;BME280;32098;49.448;7.904;2022-12-07T09:26:15;98259.78;;;2.61;80.85
46392;BME280;32098;49.448;7.904;2022-12-07T09:28:41;98256.63;;;2.66;80.81
46392;BME280;32098;49.448;7.904;2022-12-07T09:31:08;98256.09;;;2.70;80.79
46392;BME280;32098;49.448;7.904;2022-12-07T09:33:59;98253.91;;;2.74;79.94
46392;BME280;32098;49.448;7.904;2022-12-07T09:36:27;98257.72;;;2.71;79.78
46392;BME280;32098;49.448;7.904;2022-12-07T09:38:54;98260.34;;;2.71;79.60
46392;BME280;32098;49.448;7.904;2022-12-07T09:41:21;98255.91;;;2.72;79.81
46392;BME280;32098;49.448;7.904;2022-12-07T09:43:48;98250.38;;;2.81;80.00
46392;BME280;32098;49.448;7.904;2022-12-07T09:46:17;98252.41;;;2.94;79.89
46392;BME280;32098;49.448;7.904;2022-12-07T09:48:46;98256.50;;;3.11;79.49
46392;BME280;32098;49.448;7.904;2022-12-07T09:51:19;98253.25;;;3.38;78.84
46392;BME280;32098;49.448;7.904;2022-12-07T09:53:51;98242.06;;;3.51;79.02
46392;BME280;32098;49.448;7.904;2022-12-07T09:56:19;98244.22;;;3.62;77.83
46392;BME280;32098;49.448;7.904;2022-12-07T09:58:47;98243.13;;;3.71;77.09
46392;BME280;32098;49.448;7.904;2022-12-07T10:01:19;98237.44;;;3.74;76.79
46392;BME280;32098;49.448;7.904;2022-12-07T10:03:52;98233.69;;;3.83;76.57
46392;BME280;32098;49.448;7.904;2022-12-07T10:06:19;98238.84;;;3.91;76.59
46392;BME280;32098;49.448;7.904;2022-12-07T10:08:46;98233.13;;;3.88;76.02
46392;BME280;32098;49.448;7.904;2022-12-07T10:11:13;98243.25;;;3.84;76.20
46392;BME280;32098;49.448;7.904;2022-12-07T10:13:52;98235.50;;;3.83;76.10
46392;BME280;32098;49.448;7.904;2022-12-07T10:19:21;98236.56;;;3.67;76.65
46392;BME280;32098;49.448;7.904;2022-12-07T10:22:14;98237.72;;;3.65;76.80
46392;BME280;32098;49.448;7.904;2022-12-07T10:24:43;98231.56;;;3.58;77.04
46392;BME280;32098;49.448;7.904;2022-12-07T10:27:21;98231.09;;;3.54;77.01
46392;BME280;32098;49.448;7.904;2022-12-07T10:29:52;98229.47;;;3.53;77.83
46392;BME280;32098;49.448;7.904;2022-12-07T10:34:45;98230.66;;;3.51;77.08
46392;BME280;32098;49.448;7.904;2022-12-07T10:37:19;98222.13;;;3.49;76.23
46392;BME280;32098;49.448;7.904;2022-12-07T10:39:54;98216.44;;;3.52;76.53
46392;BME280;32098;49.448;7.904;2022-12-07T10:42:31;98217.63;;;3.49;75.82
46392;BME280;32098;49.448;7.904;2022-12-07T10:45:17;98215.38;;;3.46;76.15
46392;BME280;32098;49.448;7.904;2022-12-07T10:47:50;98209.19;;;3.39;75.04
46392;BME280;32098;49.448;7.904;2022-12-07T10:50:47;98208.47;;;3.30;74.86
46392;BME280;32098;49.448;7.904;2022-12-07T10:53:37;98211.03;;;3.24;76.09
46392;BME280;32098;49.448;7.904;2022-12-07T10:56:29;98209.84;;;3.26;75.70
46392;BME280;32098;49.448;7.904;2022-12-07T11:01:39;98201.75;;;3.28;75.84
46392;BME280;32098;49.448;7.904;2022-12-07T11:04:24;98192.19;;;3.27;75.54
46392;BME280;32098;49.448;7.904;2022-12-07T11:09:49;98186.19;;;3.33;75.13
46392;BME280;32098;49.448;7.904;2022-12-07T11:12:59;98188.25;;;3.37;74.99
46392;BME280;32098;49.448;7.904;2022-12-07T11:15:42;98185.88;;;3.42;75.37
46392;BME280;32098;49.448;7.904;2022-12-07T11:18:23;98178.59;;;3.44;75.08
46392;BME280;32098;49.448;7.904;2022-12-07T11:24:16;98177.56;;;3.60;74.20
46392;BME280;32098;49.448;7.904;2022-12-07T11:26:57;98164.63;;;3.65;73.24
46392;BME280;32098;49.448;7.904;2022-12-07T11:29:52;98171.81;;;3.71;73.39
46392;BME280;32098;49.448;7.904;2022-12-07T11:35:07;98168.28;;;3.85;73.37
46392;BME280;32098;49.448;7.904;2022-12-07T11:37:36;98164.66;;;3.86;73.58
46392;BME280;32098;49.448;7.904;2022-12-07T11:40:30;98160.88;;;3.95;73.77
46392;BME280;32098;49.448;7.904;2022-12-07T11:45:59;98162.69;;;3.95;71.00
46392;BME280;32098;49.448;7.904;2022-12-07T11:48:38;98154.38;;;3.98;70.44
46392;BME280;32098;49.448;7.904;2022-12-07T11:51:10;98157.44;;;4.01;71.07
46392;BME280;32098;49.448;7.904;2022-12-07T11:53:48;98152.81;;;4.03;70.37
46392;BME280;32098;49.448;7.904;2022-12-07T11:56:26;98150.81;;;4.05;70.28
46392;BME280;32098;49.448;7.904;2022-12-07T11:58:58;98139.84;;;4.08;70.19
46392;BME280;32098;49.448;7.904;2022-12-07T12:04:10;98141.97;;;4.20;70.33
46392;BME280;32098;49.448;7.904;2022-12-07T12:06:43;98145.22;;;4.22;69.39
46392;BME280;32098;49.448;7.904;2022-12-07T12:09:15;98136.75;;;4.26;69.23
46392;BME280;32098;49.448;7.904;2022-12-07T12:18:40;98142.34;;;4.17;67.60
46392;BME280;32098;49.448;7.904;2022-12-07T12:21:13;98131.78;;;4.17;67.23
46392;BME280;32098;49.448;7.904;2022-12-07T12:24:13;98129.09;;;4.10;67.15
46392;BME280;32098;49.448;7.904;2022-12-07T12:26:50;98113.97;;;4.04;67.88
46392;BME280;32098;49.448;7.904;2022-12-07T12:29:31;98125.25;;;4.13;67.51
46392;BME280;32098;49.448;7.904;2022-12-07T12:32:14;98123.22;;;4.15;68.00
46392;BME280;32098;49.448;7.904;2022-12-07T12:35:03;98121.84;;;4.19;67.69
46392;BME280;32098;49.448;7.904;2022-12-07T12:37:47;98121.44;;;4.22;67.96
46392;BME280;32098;49.448;7.904;2022-12-07T12:42:44;98109.50;;;4.26;67.45
46392;BME280;32098;49.448;7.904;2022-12-07T12:48:01;98102.56;;;4.25;66.98
46392;BME280;32098;49.448;7.904;2022-12-07T12:50:33;98102.16;;;4.21;66.83
46392;BME280;32098;49.448;7.904;2022-12-07T12:53:33;98100.53;;;4.27;66.78
46392;BME280;32098;49.448;7.904;2022-12-07T12:56:17;98096.06;;;4.27;66.40
46392;BME280;32098;49.448;7.904;2022-12-07T12:58:49;98092.81;;;4.25;67.16
46392;BME280;32098;49.448;7.904;2022-12-07T13:04:03;98095.06;;;4.28;66.85
46392;BME280;32098;49.448;7.904;2022-12-07T13:06:41;98093.06;;;4.30;66.65
46392;BME280;32098;49.448;7.904;2022-12-07T13:09:20;98088.72;;;4.23;65.81
46392;BME280;32098;49.448;7.904;2022-12-07T13:11:56;98080.19;;;4.21;66.10
46392;BME280;32098;49.448;7.904;2022-12-07T13:14:55;98076.50;;;4.22;66.23
46392;BME280;32098;49.448;7.904;2022-12-07T13:20:00;98075.75;;;4.28;66.42
46392;BME280;32098;49.448;7.904;2022-12-07T13:22:38;98078.03;;;4.31;65.74
46392;BME280;32098;49.448;7.904;2022-12-07T13:25:21;98074.59;;;4.37;65.55
46392;BME280;32098;49.448;7.904;2022-12-07T13:30:46;98066.78;;;4.56;66.21
46392;BME280;32098;49.448;7.904;2022-12-07T13:33:14;98069.47;;;4.63;65.82
46392;BME280;32098;49.448;7.904;2022-12-07T13:35:43;98064.94;;;4.57;65.05
46392;BME280;32098;49.448;7.904;2022-12-07T13:38:34;98062.06;;;4.52;65.03
46392;BME280;32098;49.448;7.904;2022-12-07T13:41:17;98057.19;;;4.49;65.06
46392;BME280;32098;49.448;7.904;2022-12-07T13:43:51;98044.13;;;4.41;65.66
46392;BME280;32098;49.448;7.904;2022-12-07T13:46:24;98056.72;;;4.39;65.69
46392;BME280;32098;49.448;7.904;2022-12-07T13:48:52;98061.38;;;4.37;65.94
46392;BME280;32098;49.448;7.904;2022-12-07T13:54:11;98059.50;;;4.31;66.78
46392;BME280;32098;49.448;7.904;2022-12-07T13:56:36;98062.09;;;4.24;67.63
46392;BME280;32098;49.448;7.904;2022-12-07T13:59:05;98050.09;;;4.22;67.48
46392;BME280;32098;49.448;7.904;2022-12-07T14:01:32;98058.25;;;4.27;67.86
46392;BME280;32098;49.448;7.904;2022-12-07T14:06:51;98054.16;;;4.24;68.34
46392;BME280;32098;49.448;7.904;2022-12-07T14:09:22;98061.69;;;4.21;68.42
46392;BME280;32098;49.448;7.904;2022-12-07T14:11:50;98057.00;;;4.23;69.04
46392;BME280;32098;49.448;7.904;2022-12-07T14:14:20;98061.00;;;4.12;68.65
46392;BME280;32098;49.448;7.904;2022-12-07T14:16:59;98060.41;;;4.17;68.24
46392;BME280;32098;49.448;7.904;2022-12-07T14:25:22;98057.28;;;4.06;68.90
46392;BME280;32098;49.448;7.904;2022-12-07T14:30:19;98056.69;;;4.04;69.15
46392;BME280;32098;49.448;7.904;2022-12-07T14:32:48;98061.53;;;4.01;68.56
46392;BME280;32098;49.448;7.904;2022-12-07T14:35:18;98054.81;;;3.98;69.36
46392;BME280;32098;49.448;7.904;2022-12-07T14:37:47;98063.75;;;3.97;68.94
46392;BME280;32098;49.448;7.904;2022-12-07T14:40:20;98050.28;;;3.92;69.52
46392;BME280;32098;49.448;7.904;2022-12-07T14:42:50;98059.03;;;3.93;69.05
46392;BME280;32098;49.448;7.904;2022-12-07T14:45:20;98060.22;;;3.90;69.19
46392;BME280;32098;49.448;7.904;2022-12-07T14:47:47;98059.22;;;3.91;69.25